createdAt,value
2018-08-22T00:01:34.021Z,18.70
2018-08-22T00:04:02.307Z,18.27
2018-08-22T00:06:30.570Z,18.83
2018-08-22T00:08:58.878Z,19.30
2018-08-22T00:11:27.130Z,19.17
2018-08-22T00:13:55.394Z,18.50
2018-08-22T00:16:23.670Z,19.03
2018-08-22T00:18:52.363Z,18.47
2018-08-22T00:21:20.750Z,19.63
2018-08-22T00:23:49.072Z,19.07
2018-08-22T00:26:17.383Z,19.37
2018-08-22T00:28:45.659Z,19.70
2018-08-22T00:31:13.950Z,20.73
2018-08-22T00:33:42.267Z,22.30
2018-08-22T00:36:10.553Z,21.13
2018-08-22T00:38:38.833Z,21.30
2018-08-22T00:41:07.187Z,20.10
2018-08-22T00:43:35.439Z,20.17
2018-08-22T00:46:03.699Z,20.50
2018-08-22T00:48:31.969Z,19.50
2018-08-22T00:51:00.293Z,21.73
2018-08-22T00:53:28.659Z,20.37
2018-08-22T00:55:56.888Z,19.47
2018-08-22T00:58:25.794Z,18.83
2018-08-22T01:00:55.403Z,19.50
2018-08-22T01:03:29.758Z,20.23
2018-08-22T01:06:04.498Z,20.07
2018-08-22T01:08:34.898Z,20.00
2018-08-22T01:11:12.493Z,20.40
2018-08-22T01:13:49.361Z,20.10
2018-08-22T01:16:28.150Z,19.37
2018-08-22T01:19:08.035Z,19.13
2018-08-22T01:21:44.544Z,20.33
2018-08-22T01:24:15.253Z,19.97
2018-08-22T01:26:52.907Z,19.60
2018-08-22T01:29:23.235Z,19.13
2018-08-22T01:31:55.553Z,20.20
2018-08-22T01:34:27.202Z,20.50
2018-08-22T01:36:56.261Z,19.20
2018-08-22T01:39:25.033Z,19.50
2018-08-22T01:41:54.736Z,19.63
2018-08-22T01:44:24.508Z,20.53
2018-08-22T01:46:53.988Z,20.43
2018-08-22T01:49:27.234Z,20.77
2018-08-22T01:51:56.744Z,21.40
2018-08-22T01:54:28.669Z,21.93
2018-08-22T01:56:59.914Z,22.57
2018-08-22T01:59:30.032Z,23.80
2018-08-22T02:01:58.903Z,21.53
2018-08-22T02:04:27.482Z,21.63
2018-08-22T02:06:55.841Z,20.23
2018-08-22T02:09:24.744Z,20.03
2018-08-22T02:11:53.735Z,20.90
2018-08-22T02:14:22.205Z,20.87
2018-08-22T02:16:50.861Z,21.07
2018-08-22T02:19:19.510Z,21.63
2018-08-22T02:21:48.132Z,21.57
2018-08-22T02:24:17.964Z,21.57
2018-08-22T02:26:47.006Z,22.70
2018-08-22T02:29:15.956Z,21.57
2018-08-22T02:31:45.000Z,21.63
2018-08-22T02:34:13.689Z,23.17
2018-08-22T02:36:42.130Z,22.83
2018-08-22T02:39:10.525Z,23.63
2018-08-22T02:41:39.003Z,22.37
2018-08-22T02:44:07.503Z,23.50
2018-08-22T02:46:35.945Z,22.53
2018-08-22T02:49:04.466Z,24.90
2018-08-22T02:51:33.887Z,22.90
2018-08-22T02:54:02.434Z,24.40
2018-08-22T02:56:30.783Z,22.17
2018-08-22T02:58:59.134Z,25.63
2018-08-22T03:01:27.381Z,24.20
2018-08-22T03:03:55.650Z,24.03
2018-08-22T03:06:23.904Z,23.40
2018-08-22T03:08:52.216Z,24.67
2018-08-22T03:11:20.521Z,23.30
2018-08-22T03:13:55.162Z,23.97
2018-08-22T03:16:23.471Z,24.10
2018-08-22T03:18:51.749Z,25.40
2018-08-22T03:21:20.009Z,27.37
2018-08-22T03:23:48.299Z,25.30
2018-08-22T03:26:16.637Z,26.87
2018-08-22T03:28:44.865Z,26.70
2018-08-22T03:31:13.130Z,25.43
2018-08-22T03:33:41.446Z,27.17
2018-08-22T03:36:09.736Z,26.27
2018-08-22T03:38:38.051Z,26.10
2018-08-22T03:41:06.330Z,26.40
2018-08-22T03:43:34.574Z,27.53
2018-08-22T03:46:02.866Z,26.77
2018-08-22T03:48:31.154Z,29.07
2018-08-22T03:50:59.499Z,25.37
2018-08-22T03:53:27.956Z,26.30
2018-08-22T03:55:56.249Z,25.70
2018-08-22T03:58:24.548Z,25.57
2018-08-22T04:00:52.810Z,25.60
2018-08-22T04:03:21.068Z,24.70
2018-08-22T04:05:49.345Z,25.00
2018-08-22T04:08:17.626Z,24.73
2018-08-22T04:10:46.985Z,23.87
2018-08-22T04:13:15.237Z,24.07
2018-08-22T04:15:43.526Z,24.23
2018-08-22T04:18:11.785Z,21.90
2018-08-22T04:20:40.087Z,22.60
2018-08-22T04:23:08.800Z,20.67
2018-08-22T04:25:37.088Z,21.53
2018-08-22T04:28:05.486Z,22.00
2018-08-22T04:30:33.843Z,20.50
2018-08-22T04:33:02.249Z,20.90
2018-08-22T04:35:30.592Z,22.00
2018-08-22T04:37:58.859Z,21.07
2018-08-22T04:40:27.145Z,20.50
2018-08-22T04:42:55.407Z,20.47
2018-08-22T04:45:23.651Z,21.60
2018-08-22T04:47:51.918Z,20.73
2018-08-22T04:50:20.217Z,21.37
2018-08-22T04:52:48.474Z,21.37
2018-08-22T04:55:16.994Z,20.07
2018-08-22T04:57:45.275Z,21.33
2018-08-22T05:00:13.611Z,21.10
2018-08-22T05:02:41.894Z,21.60
2018-08-22T05:05:10.190Z,22.00
2018-08-22T05:07:38.446Z,22.33
2018-08-22T05:10:07.089Z,21.20
2018-08-22T05:12:35.398Z,22.00
2018-08-22T05:15:03.716Z,21.17
2018-08-22T05:17:32.047Z,20.70
2018-08-22T05:20:00.441Z,19.63
2018-08-22T05:22:32.488Z,20.77
2018-08-22T05:25:01.011Z,19.43
2018-08-22T05:27:29.411Z,21.13
2018-08-22T05:29:57.804Z,18.90
2018-08-22T05:32:27.519Z,19.00
2018-08-22T05:34:55.900Z,18.03
2018-08-22T05:40:38.340Z,16.73
2018-08-22T05:43:06.607Z,17.20
2018-08-22T05:45:34.975Z,16.57
2018-08-22T05:48:03.329Z,15.17
2018-08-22T05:50:31.758Z,15.57
2018-08-22T05:53:00.090Z,16.27
2018-08-22T05:55:28.459Z,15.77
2018-08-22T05:58:00.065Z,15.67
2018-08-22T06:00:28.392Z,15.03
2018-08-22T06:02:56.868Z,15.40
2018-08-22T06:05:25.264Z,15.73
2018-08-22T06:07:53.917Z,20.13
2018-08-22T06:10:22.298Z,15.90
2018-08-22T06:12:50.610Z,14.77
2018-08-22T06:15:18.984Z,15.87
2018-08-22T06:17:49.243Z,15.73
2018-08-22T06:20:20.494Z,16.90
2018-08-22T06:22:54.244Z,15.83
2018-08-22T06:25:30.548Z,16.53
2018-08-22T06:28:10.662Z,15.43
2018-08-22T06:30:41.583Z,19.23
2018-08-22T06:33:10.690Z,17.87
2018-08-22T06:35:39.412Z,18.87
2018-08-22T06:38:09.415Z,19.70
2018-08-22T06:40:38.565Z,19.43
2018-08-22T06:43:07.463Z,19.10
2018-08-22T06:45:36.263Z,20.00
2018-08-22T06:48:05.152Z,21.23
2018-08-22T06:50:34.453Z,21.57
2018-08-22T06:53:05.622Z,22.10
2018-08-22T06:55:35.914Z,21.53
2018-08-22T06:58:06.204Z,22.00
2018-08-22T07:00:38.366Z,23.90
2018-08-22T07:03:07.216Z,23.37
2018-08-22T07:05:36.499Z,24.37
2018-08-22T07:08:06.577Z,24.10
2018-08-22T07:10:36.401Z,23.57
2018-08-22T07:13:05.751Z,24.73
2018-08-22T07:15:37.121Z,24.27
2018-08-22T07:18:10.011Z,23.63
2018-08-22T07:20:44.621Z,23.93
2018-08-22T07:23:19.165Z,22.03
2018-08-22T07:25:52.726Z,23.07
2018-08-22T07:28:29.024Z,18.70
2018-08-22T07:31:09.917Z,21.37
2018-08-22T07:36:48.856Z,22.90
2018-08-22T07:39:20.551Z,23.77
2018-08-22T07:41:49.339Z,24.47
2018-08-22T07:44:17.823Z,24.13
2018-08-22T07:46:46.207Z,24.80
2018-08-22T07:49:14.652Z,23.80
2018-08-22T07:51:43.210Z,23.47
2018-08-22T07:54:11.735Z,22.30
2018-08-22T07:56:40.078Z,20.33
2018-08-22T07:59:19.336Z,21.93
2018-08-22T08:01:47.838Z,21.40
2018-08-22T08:04:16.333Z,20.17
2018-08-22T08:06:44.838Z,21.47
2018-08-22T08:09:15.653Z,21.83
2018-08-22T08:11:45.008Z,21.63
2018-08-22T08:14:14.550Z,21.70
2018-08-22T08:16:42.939Z,21.40
2018-08-22T08:19:11.823Z,24.97
2018-08-22T08:21:40.164Z,27.00
2018-08-22T08:24:08.630Z,22.93
2018-08-22T08:26:48.070Z,22.70
2018-08-22T08:29:20.246Z,22.60
2018-08-22T08:31:48.772Z,21.73
2018-08-22T08:34:17.315Z,21.60
2018-08-22T08:36:45.905Z,21.47
2018-08-22T08:39:26.482Z,22.13
2018-08-22T08:42:03.986Z,20.63
2018-08-22T08:44:32.345Z,19.53
2018-08-22T08:47:01.819Z,17.97
2018-08-22T08:49:30.217Z,18.97
2018-08-22T08:52:00.593Z,19.93
2018-08-22T08:54:29.513Z,19.50
2018-08-22T08:56:58.376Z,18.67
2018-08-22T08:59:27.291Z,17.00
2018-08-22T09:01:57.065Z,16.47
2018-08-22T09:04:37.429Z,15.20
2018-08-22T09:07:24.378Z,13.83
2018-08-22T09:10:11.740Z,13.33
2018-08-22T09:12:49.608Z,13.00
2018-08-22T09:15:37.455Z,12.67
2018-08-22T09:21:09.643Z,15.10
2018-08-22T09:23:42.321Z,17.03
2018-08-22T09:26:10.633Z,17.43
2018-08-22T09:28:38.898Z,17.00
2018-08-22T09:31:07.171Z,16.70
2018-08-22T09:33:35.543Z,17.37
2018-08-22T09:36:03.856Z,17.03
2018-08-22T09:38:32.122Z,17.80
2018-08-22T09:41:00.390Z,18.97
2018-08-22T09:43:28.667Z,19.90
2018-08-22T09:45:56.955Z,19.23
2018-08-22T09:48:25.278Z,19.37
2018-08-22T09:50:53.913Z,21.43
2018-08-22T09:53:22.196Z,19.20
2018-08-22T09:55:50.495Z,18.63
2018-08-22T09:58:18.866Z,17.97
2018-08-22T10:00:52.495Z,17.67
2018-08-22T10:03:20.802Z,18.07
2018-08-22T10:05:49.167Z,16.13
2018-08-22T10:08:17.442Z,15.30
2018-08-22T10:10:45.705Z,14.53
2018-08-22T10:13:14.055Z,14.50
2018-08-22T10:15:42.360Z,12.50
2018-08-22T10:18:10.651Z,12.70
2018-08-22T10:20:38.960Z,11.50
2018-08-22T10:23:07.284Z,10.60
2018-08-22T10:25:35.591Z,12.23
2018-08-22T10:28:03.838Z,12.07
2018-08-22T10:30:32.154Z,12.00
2018-08-22T10:33:00.515Z,13.10
2018-08-22T10:35:28.884Z,12.47
2018-08-22T10:37:57.218Z,12.53
2018-08-22T10:40:25.521Z,16.17
2018-08-22T10:42:53.916Z,15.37
2018-08-22T10:45:22.183Z,16.17
2018-08-22T10:47:50.447Z,15.07
2018-08-22T10:50:18.745Z,16.17
2018-08-22T10:52:46.982Z,14.47
2018-08-22T10:55:15.292Z,13.07
2018-08-22T10:57:43.534Z,8.87
2018-08-22T11:00:11.829Z,9.83
2018-08-22T11:02:40.110Z,9.30
2018-08-22T11:05:08.397Z,9.33
2018-08-22T11:07:36.694Z,8.93
2018-08-22T11:10:05.103Z,10.23
2018-08-22T11:12:33.321Z,10.13
2018-08-22T11:15:01.579Z,10.20
2018-08-22T11:17:29.859Z,10.63
2018-08-22T11:19:58.143Z,11.10
2018-08-22T11:22:37.853Z,11.23
2018-08-22T11:25:17.694Z,10.63
2018-08-22T11:27:57.452Z,10.37
2018-08-22T11:30:37.132Z,9.10
2018-08-22T11:33:16.839Z,8.57
2018-08-22T11:35:44.106Z,8.83
2018-08-22T11:38:12.358Z,8.40
2018-08-22T11:40:40.684Z,8.63
2018-08-22T11:43:08.920Z,8.63
2018-08-22T11:45:37.216Z,7.10
2018-08-22T11:48:05.538Z,7.17
2018-08-22T11:50:33.804Z,6.90
2018-08-22T11:53:02.139Z,7.87
2018-08-22T11:55:30.394Z,9.47
2018-08-22T11:57:58.663Z,8.70
2018-08-22T12:00:26.937Z,7.33
2018-08-22T12:02:55.191Z,8.70
2018-08-22T12:05:23.483Z,10.67
2018-08-22T12:07:51.921Z,11.83
2018-08-22T12:10:20.291Z,13.17
2018-08-22T12:12:48.554Z,12.97
2018-08-22T12:15:16.798Z,8.87
2018-08-22T12:17:45.087Z,7.70
2018-08-22T12:20:13.363Z,7.07
2018-08-22T12:22:41.642Z,7.30
2018-08-22T12:25:09.887Z,6.73
2018-08-22T12:27:38.177Z,6.17
2018-08-22T12:30:06.448Z,6.67
2018-08-22T12:32:34.725Z,7.70
2018-08-22T12:35:03.015Z,8.43
2018-08-22T12:37:31.298Z,7.60
2018-08-22T12:39:59.594Z,7.50
2018-08-22T12:42:27.946Z,7.23
2018-08-22T12:44:56.215Z,7.37
2018-08-22T12:47:24.502Z,9.23
2018-08-22T12:49:52.760Z,7.87
2018-08-22T12:52:21.159Z,7.87
2018-08-22T12:54:49.488Z,8.07
2018-08-22T12:57:17.767Z,7.97
2018-08-22T12:59:46.035Z,8.00
2018-08-22T13:02:14.295Z,7.10
2018-08-22T13:04:42.708Z,7.53
2018-08-22T13:07:10.936Z,7.07
2018-08-22T13:09:39.234Z,8.20
2018-08-22T13:12:07.499Z,9.03
2018-08-22T13:14:35.843Z,7.47
2018-08-22T13:17:04.346Z,7.30
2018-08-22T13:19:32.638Z,7.17
2018-08-22T13:22:00.896Z,7.13
2018-08-22T13:24:29.242Z,8.87
2018-08-22T13:26:57.534Z,10.67
2018-08-22T13:29:25.824Z,8.43
2018-08-22T13:31:54.131Z,8.17
2018-08-22T13:34:22.499Z,8.30
2018-08-22T13:36:50.882Z,10.73
2018-08-22T13:39:19.162Z,10.43
2018-08-22T13:41:48.204Z,9.10
2018-08-22T13:44:16.539Z,8.70
2018-08-22T13:46:45.558Z,9.83
2018-08-22T13:49:14.109Z,9.50
2018-08-22T13:51:42.625Z,7.53
2018-08-22T13:54:11.404Z,8.67
2018-08-22T13:56:39.863Z,8.80
2018-08-22T13:59:08.527Z,9.07
2018-08-22T14:01:37.175Z,9.43
2018-08-22T14:04:05.797Z,9.10
2018-08-22T14:06:34.541Z,8.57
2018-08-22T14:09:03.401Z,8.57
2018-08-22T14:11:31.966Z,7.00
2018-08-22T14:14:00.512Z,7.33
2018-08-22T14:16:29.099Z,6.70
2018-08-22T14:18:57.612Z,6.40
2018-08-22T14:21:27.477Z,7.87
2018-08-22T14:23:56.202Z,6.33
2018-08-22T14:26:25.051Z,6.13
2018-08-22T14:28:53.789Z,6.53
2018-08-22T14:31:22.666Z,6.40
2018-08-22T14:33:52.154Z,7.37
2018-08-22T14:36:20.944Z,7.90
2018-08-22T14:38:49.650Z,7.33
2018-08-22T14:41:18.300Z,7.10
2018-08-22T14:43:46.982Z,6.70
2018-08-22T14:46:16.246Z,6.60
2018-08-22T14:48:46.259Z,8.07
2018-08-22T14:51:14.899Z,6.77
2018-08-22T14:53:43.481Z,6.77
2018-08-22T14:56:12.388Z,6.83
2018-08-22T14:58:42.013Z,8.50
2018-08-22T15:01:11.256Z,8.20
2018-08-22T15:03:40.598Z,8.83
2018-08-22T15:06:09.128Z,7.60
2018-08-22T15:08:38.078Z,6.97
2018-08-22T15:11:06.698Z,9.27
2018-08-22T15:13:35.315Z,8.53
2018-08-22T15:16:03.812Z,7.70
2018-08-22T15:18:32.410Z,6.83
2018-08-22T15:21:01.011Z,6.33
2018-08-22T15:23:29.711Z,6.60
2018-08-22T15:25:58.178Z,6.33
2018-08-22T15:28:26.992Z,9.53
2018-08-22T15:30:55.551Z,6.43
2018-08-22T15:33:24.144Z,7.67
2018-08-22T15:35:52.795Z,6.67
2018-08-22T15:38:26.156Z,6.93
2018-08-22T15:40:54.844Z,6.73
2018-08-22T15:43:33.760Z,7.00
2018-08-22T15:46:02.412Z,7.37
2018-08-22T15:48:39.036Z,8.13
2018-08-22T15:51:08.117Z,7.17
2018-08-22T15:53:37.518Z,6.33
2018-08-22T15:56:06.275Z,6.67
2018-08-22T15:58:36.572Z,7.30
2018-08-22T16:01:06.145Z,6.93
2018-08-22T16:03:35.072Z,7.00
2018-08-22T16:06:09.806Z,7.10
2018-08-22T16:08:40.427Z,7.00
2018-08-22T16:11:10.936Z,7.27
2018-08-22T16:13:39.532Z,7.00
2018-08-22T16:16:08.470Z,6.77
2018-08-22T16:18:36.917Z,6.40
2018-08-22T16:24:27.354Z,6.63
2018-08-22T16:26:56.137Z,7.67
2018-08-22T16:29:31.811Z,7.33
2018-08-22T16:32:04.209Z,7.83
2018-08-22T16:34:57.267Z,7.70
2018-08-22T16:40:27.444Z,7.90
2018-08-22T16:42:59.359Z,7.40
2018-08-22T16:45:28.831Z,8.03
2018-08-22T16:47:57.270Z,9.03
2018-08-22T16:50:26.129Z,8.23
2018-08-22T16:52:55.136Z,7.20
2018-08-22T16:55:24.805Z,6.70
2018-08-22T16:57:54.005Z,15.13
2018-08-22T17:00:32.244Z,23.63
2018-08-22T17:03:01.100Z,7.20
2018-08-22T17:05:29.541Z,13.73
2018-08-22T17:08:09.717Z,7.33
2018-08-22T17:10:55.276Z,5.90
2018-08-22T17:13:31.724Z,6.40
2018-08-22T17:16:01.602Z,6.47
2018-08-22T17:18:30.048Z,6.10
2018-08-22T17:20:58.431Z,6.37
2018-08-22T17:23:26.873Z,6.43
2018-08-22T17:25:55.313Z,5.60
2018-08-22T17:28:28.441Z,6.47
2018-08-22T17:30:57.026Z,6.40
2018-08-22T17:33:30.965Z,10.50
2018-08-22T17:35:59.512Z,7.93
2018-08-22T17:38:28.036Z,10.37
2018-08-22T17:40:56.415Z,15.17
2018-08-22T17:43:25.339Z,14.23
2018-08-22T17:45:53.848Z,9.43
2018-08-22T17:48:22.639Z,9.10
2018-08-22T17:50:51.400Z,8.33
2018-08-22T17:53:21.266Z,11.30
2018-08-22T17:55:50.727Z,8.80
2018-08-22T17:58:29.433Z,9.53
2018-08-22T18:01:00.270Z,10.63
2018-08-22T18:03:28.604Z,10.77
2018-08-22T18:05:56.939Z,9.57
2018-08-22T18:08:25.221Z,11.43
2018-08-22T18:10:53.583Z,10.50
2018-08-22T18:13:21.918Z,11.97
2018-08-22T18:15:50.195Z,11.63
2018-08-22T18:18:19.783Z,12.37
2018-08-22T18:20:49.545Z,12.53
2018-08-22T18:23:18.830Z,12.50
2018-08-22T18:25:55.407Z,12.50
2018-08-22T18:28:24.223Z,13.03
2018-08-22T18:30:52.539Z,13.13
2018-08-22T18:33:21.342Z,12.40
2018-08-22T18:35:49.754Z,13.83
2018-08-22T18:38:18.047Z,15.10
2018-08-22T18:40:56.371Z,13.13
2018-08-22T18:43:24.895Z,14.47
2018-08-22T18:46:07.381Z,15.13
2018-08-22T18:48:36.491Z,15.30
2018-08-22T18:51:06.321Z,13.73
2018-08-22T18:53:35.441Z,16.10
2018-08-22T18:56:14.214Z,16.33
2018-08-22T18:58:42.532Z,17.17
2018-08-22T19:01:10.943Z,16.63
2018-08-22T19:03:39.194Z,17.30
2018-08-22T19:06:07.966Z,17.60
2018-08-22T19:08:39.949Z,16.97
2018-08-22T19:11:09.166Z,18.27
2018-08-22T19:13:43.569Z,17.60
2018-08-22T19:16:15.270Z,18.90
2018-08-22T19:18:58.527Z,17.87
2018-08-22T19:21:33.780Z,18.53
2018-08-22T19:24:04.531Z,19.43
2018-08-22T19:26:36.640Z,19.87
2018-08-22T19:29:06.427Z,19.93
2018-08-22T19:31:35.917Z,19.07
2018-08-22T19:34:11.360Z,21.07
2018-08-22T19:36:40.444Z,18.80
2018-08-22T19:39:08.994Z,19.23
2018-08-22T19:41:42.830Z,20.20
2018-08-22T19:44:11.954Z,19.50
2018-08-22T19:46:40.326Z,19.80
2018-08-22T19:49:09.349Z,18.77
2018-08-22T19:51:37.914Z,20.33
2018-08-22T19:54:08.440Z,19.87
2018-08-22T19:59:27.286Z,21.53
2018-08-22T20:02:01.762Z,20.93
2018-08-22T20:04:34.214Z,20.00
2018-08-22T20:07:05.643Z,19.80
2018-08-22T20:09:40.720Z,21.47
2018-08-22T20:12:12.584Z,20.77
2018-08-22T20:14:51.961Z,20.13
2018-08-22T20:17:25.834Z,20.30
2018-08-22T20:19:56.233Z,20.53
2018-08-22T20:22:35.744Z,20.17
2018-08-22T20:25:04.898Z,19.33
2018-08-22T20:27:36.601Z,20.80
2018-08-22T20:30:13.003Z,19.27
2018-08-22T20:32:58.771Z,18.87
2018-08-22T20:35:30.613Z,18.30
2018-08-22T20:38:00.532Z,18.33
2018-08-22T20:40:29.184Z,18.23
2018-08-22T20:42:57.820Z,19.33
2018-08-22T20:45:31.653Z,17.93
2018-08-22T20:48:05.333Z,17.43
2018-08-22T20:50:34.376Z,17.20
2018-08-22T20:53:04.118Z,18.87
2018-08-22T20:55:36.382Z,18.30
2018-08-22T20:58:06.152Z,18.00
2018-08-22T21:00:36.289Z,18.83
2018-08-22T21:03:04.745Z,18.10
2018-08-22T21:05:33.121Z,18.37
2018-08-22T21:08:07.947Z,15.23
2018-08-22T21:10:37.479Z,16.47
2018-08-22T21:13:13.060Z,15.93
2018-08-22T21:15:42.106Z,15.87
2018-08-22T21:18:10.868Z,15.17
2018-08-22T21:20:39.326Z,16.00
2018-08-22T21:23:09.877Z,15.77
2018-08-22T21:25:38.367Z,16.23
2018-08-22T21:28:06.911Z,15.30
2018-08-22T21:30:35.205Z,16.57
2018-08-22T21:33:03.519Z,16.03
2018-08-22T21:35:31.839Z,16.03
2018-08-22T21:38:04.383Z,16.73
2018-08-22T21:40:33.550Z,15.93
2018-08-22T21:43:01.913Z,16.37
2018-08-22T21:45:30.216Z,17.10
2018-08-22T21:48:12.187Z,16.70
2018-08-22T21:50:40.516Z,16.47
2018-08-22T21:53:08.889Z,15.97
2018-08-22T21:55:38.278Z,16.00
2018-08-22T21:58:07.340Z,16.80
2018-08-22T22:00:35.728Z,16.47
2018-08-22T22:03:05.074Z,16.70
2018-08-22T22:05:45.480Z,17.93
2018-08-22T22:08:13.831Z,15.57
2018-08-22T22:10:42.185Z,16.67
2018-08-22T22:13:11.940Z,17.30
2018-08-22T22:15:45.378Z,17.67
2018-08-22T22:18:14.007Z,16.13
2018-08-22T22:20:42.373Z,15.67
2018-08-22T22:23:10.675Z,18.10
2018-08-22T22:25:38.998Z,17.50
2018-08-22T22:28:07.649Z,16.80
2018-08-22T22:30:35.931Z,16.60
2018-08-22T22:33:04.219Z,17.57
2018-08-22T22:35:38.336Z,18.97
2018-08-22T22:38:10.517Z,18.63
2018-08-22T22:40:39.226Z,17.50
2018-08-22T22:43:09.503Z,18.23
2018-08-22T22:45:37.918Z,17.40
2018-08-22T22:48:06.230Z,18.47
2018-08-22T22:50:34.658Z,20.53
2018-08-22T22:53:04.761Z,20.07
2018-08-22T22:55:33.287Z,20.63
2018-08-22T22:58:02.870Z,22.60
2018-08-22T23:00:31.163Z,21.57
2018-08-22T23:03:04.786Z,20.90
2018-08-22T23:05:33.107Z,20.53
2018-08-22T23:08:02.837Z,23.83
2018-08-22T23:10:31.168Z,23.57
2018-08-22T23:12:59.492Z,23.60
2018-08-22T23:15:29.119Z,23.80
2018-08-22T23:17:58.602Z,23.80
2018-08-22T23:20:29.951Z,22.03
2018-08-22T23:23:00.868Z,24.33
2018-08-22T23:25:29.800Z,23.23
2018-08-22T23:27:58.521Z,25.03
2018-08-22T23:30:32.279Z,24.80
2018-08-22T23:33:00.632Z,26.20
2018-08-22T23:35:31.132Z,26.13
2018-08-22T23:38:01.573Z,25.23
2018-08-22T23:40:31.216Z,25.17
2018-08-22T23:42:59.531Z,24.23
2018-08-22T23:45:28.479Z,26.03
2018-08-22T23:47:56.832Z,26.53
2018-08-22T23:50:33.157Z,27.43
2018-08-22T23:53:01.476Z,27.30
2018-08-22T23:55:29.800Z,25.87
2018-08-22T23:57:58.172Z,25.03
